createdAt,value
2023-05-21T00:00:45.793Z,4.05
2023-05-21T00:03:13.852Z,4.47
2023-05-21T00:05:40.978Z,6.70
2023-05-21T00:08:07.943Z,2.83
2023-05-21T00:10:34.758Z,4.38
2023-05-21T00:13:01.712Z,3.00
2023-05-21T00:15:28.494Z,2.83
2023-05-21T00:17:55.208Z,4.82
2023-05-21T00:20:22.017Z,3.13
2023-05-21T00:22:48.752Z,3.53
2023-05-21T00:25:15.681Z,3.30
2023-05-21T00:27:42.488Z,3.50
2023-05-21T00:30:09.469Z,3.78
2023-05-21T00:32:36.930Z,2.70
2023-05-21T00:35:04.174Z,2.28
2023-05-21T00:37:34.016Z,2.50
2023-05-21T00:40:01.826Z,3.03
2023-05-21T00:42:30.613Z,2.80
2023-05-21T00:44:57.673Z,10.98
2023-05-21T00:47:26.880Z,3.63
2023-05-21T00:49:53.623Z,2.97
2023-05-21T00:52:20.467Z,5.43
2023-05-21T00:54:49.556Z,4.88
2023-05-21T00:57:20.587Z,2.05
2023-05-21T00:59:51.785Z,3.08
2023-05-21T01:02:18.563Z,4.07
2023-05-21T01:04:46.052Z,2.58
2023-05-21T01:07:13.267Z,3.80
2023-05-21T01:09:41.258Z,2.83
2023-05-21T01:12:08.760Z,2.85
2023-05-21T01:14:37.544Z,4.93
2023-05-21T01:17:06.455Z,3.67
2023-05-21T01:19:35.472Z,4.28
2023-05-21T01:22:07.643Z,4.95
2023-05-21T01:24:34.845Z,5.55
2023-05-21T01:27:04.265Z,1.98
2023-05-21T01:29:30.978Z,4.30
2023-05-21T01:32:16.685Z,2.38
2023-05-21T01:35:00.880Z,2.35
2023-05-21T01:37:36.530Z,6.55
2023-05-21T01:40:18.026Z,3.45
2023-05-21T01:42:46.702Z,3.03
2023-05-21T01:45:16.384Z,4.55
2023-05-21T01:47:47.919Z,4.22
2023-05-21T01:50:15.986Z,3.75
2023-05-21T01:52:50.919Z,2.92
2023-05-21T01:55:17.985Z,3.42
2023-05-21T01:57:44.628Z,5.15
2023-05-21T02:00:12.576Z,4.53
2023-05-21T02:02:39.278Z,3.83
2023-05-21T02:05:06.497Z,3.88
2023-05-21T02:07:33.740Z,5.07
2023-05-21T02:10:00.630Z,3.30
2023-05-21T02:12:28.283Z,3.47
2023-05-21T02:14:56.366Z,5.47
2023-05-21T02:17:24.294Z,2.40
2023-05-21T02:19:50.916Z,5.28
2023-05-21T02:22:17.605Z,3.00
2023-05-21T02:24:44.429Z,3.83
2023-05-21T02:27:13.576Z,5.53
2023-05-21T02:29:40.431Z,3.67
2023-05-21T02:32:07.425Z,2.63
2023-05-21T02:34:36.493Z,3.40
2023-05-21T02:37:03.182Z,6.63
2023-05-21T02:39:29.807Z,4.40
2023-05-21T02:41:56.436Z,3.42
2023-05-21T02:44:24.066Z,6.07
2023-05-21T02:46:50.760Z,5.50
2023-05-21T02:49:17.408Z,5.45
2023-05-21T02:51:43.995Z,4.20
2023-05-21T02:54:10.662Z,3.30
2023-05-21T02:56:37.255Z,4.88
2023-05-21T02:59:04.047Z,4.53
2023-05-21T03:01:30.806Z,7.68
2023-05-21T03:03:57.480Z,4.43
2023-05-21T03:06:24.129Z,5.53
2023-05-21T03:08:51.391Z,9.15
2023-05-21T03:11:19.972Z,7.55
2023-05-21T03:13:46.592Z,3.05
2023-05-21T03:16:14.050Z,5.20
2023-05-21T03:18:40.936Z,3.97
2023-05-21T03:21:07.661Z,7.00
2023-05-21T03:23:35.071Z,5.03
2023-05-21T03:26:02.305Z,4.05
2023-05-21T03:28:28.871Z,8.57
2023-05-21T03:30:55.559Z,5.90
2023-05-21T03:33:23.091Z,5.55
2023-05-21T03:35:49.741Z,3.80
2023-05-21T03:38:16.472Z,4.60
2023-05-21T03:40:43.182Z,3.80
2023-05-21T03:43:09.888Z,6.75
2023-05-21T03:45:36.788Z,4.07
2023-05-21T03:48:04.095Z,7.88
2023-05-21T03:50:31.009Z,7.20
2023-05-21T03:52:58.063Z,7.40
2023-05-21T03:55:24.918Z,6.03
2023-05-21T03:57:51.506Z,7.78
2023-05-21T04:00:18.259Z,8.57
2023-05-21T04:02:44.984Z,4.72
2023-05-21T04:05:11.713Z,7.72
2023-05-21T04:07:38.359Z,5.63
2023-05-21T04:10:05.728Z,6.50
2023-05-21T04:12:32.600Z,6.63
2023-05-21T04:14:59.275Z,9.40
2023-05-21T04:17:27.089Z,9.15
2023-05-21T04:19:54.300Z,6.57
2023-05-21T04:22:21.584Z,6.57
2023-05-21T04:24:48.842Z,6.78
2023-05-21T04:27:16.696Z,7.72
2023-05-21T04:29:43.306Z,6.75
2023-05-21T04:32:10.011Z,7.10
2023-05-21T04:34:36.626Z,7.80
2023-05-21T04:37:03.326Z,7.82
2023-05-21T04:39:31.487Z,5.88
2023-05-21T04:41:58.173Z,4.78
2023-05-21T04:44:24.824Z,10.60
2023-05-21T04:46:52.506Z,5.75
2023-05-21T04:49:20.869Z,7.50
2023-05-21T04:51:47.548Z,7.90
2023-05-21T04:54:14.228Z,9.98
2023-05-21T04:56:40.884Z,9.35
2023-05-21T04:59:07.521Z,12.15
2023-05-21T05:01:35.098Z,8.02
2023-05-21T05:04:01.980Z,8.30
2023-05-21T05:06:28.824Z,7.63
2023-05-21T05:08:55.430Z,9.02
2023-05-21T05:11:22.399Z,7.75
2023-05-21T05:13:49.112Z,9.48
2023-05-21T05:16:18.369Z,7.82
2023-05-21T05:18:45.078Z,6.68
2023-05-21T05:21:11.769Z,7.15
2023-05-21T05:23:38.410Z,8.15
2023-05-21T05:26:06.030Z,6.32
2023-05-21T05:28:32.672Z,4.95
2023-05-21T05:30:59.557Z,7.55
2023-05-21T05:33:26.321Z,7.43
2023-05-21T05:35:53.010Z,7.40
2023-05-21T05:38:19.816Z,8.35
2023-05-21T05:40:47.562Z,10.40
2023-05-21T05:43:14.157Z,6.40
2023-05-21T05:45:40.852Z,5.82
2023-05-21T05:48:07.585Z,8.15
2023-05-21T05:50:34.422Z,7.60
2023-05-21T05:53:01.070Z,9.73
2023-05-21T05:55:27.755Z,5.30
2023-05-21T05:57:54.815Z,5.30
2023-05-21T06:00:22.811Z,7.07
2023-05-21T06:02:49.523Z,8.27
2023-05-21T06:05:16.540Z,11.18
2023-05-21T06:07:44.664Z,7.13
2023-05-21T06:10:11.384Z,8.25
2023-05-21T06:12:37.963Z,6.22
2023-05-21T06:15:06.087Z,8.50
2023-05-21T06:17:32.759Z,8.73
2023-05-21T06:19:59.512Z,8.85
2023-05-21T06:22:26.137Z,8.20
2023-05-21T06:24:52.733Z,7.32
2023-05-21T06:27:19.495Z,9.15
2023-05-21T06:29:46.097Z,7.07
2023-05-21T06:32:14.530Z,9.55
2023-05-21T06:34:41.109Z,9.57
2023-05-21T06:37:07.848Z,9.23
2023-05-21T06:39:34.525Z,8.20
2023-05-21T06:42:01.723Z,9.07
2023-05-21T06:44:29.749Z,7.70
2023-05-21T06:46:58.339Z,9.20
2023-05-21T06:49:24.969Z,10.10
2023-05-21T06:51:51.600Z,9.10
2023-05-21T06:54:18.244Z,9.48
2023-05-21T06:56:44.921Z,10.80
2023-05-21T06:59:12.061Z,9.77
2023-05-21T07:01:42.285Z,9.05
2023-05-21T07:04:09.412Z,12.30
2023-05-21T07:06:36.311Z,8.88
2023-05-21T07:09:04.770Z,9.00
2023-05-21T07:11:31.815Z,12.02
2023-05-21T07:14:01.505Z,9.65
2023-05-21T07:16:28.105Z,8.27
2023-05-21T07:18:55.126Z,9.80
2023-05-21T07:21:21.993Z,10.23
2023-05-21T07:23:49.104Z,10.40
2023-05-21T07:26:15.980Z,10.13
2023-05-21T07:28:42.835Z,11.45
2023-05-21T07:31:12.056Z,9.25
2023-05-21T07:33:38.772Z,9.88
2023-05-21T07:36:06.049Z,8.07
2023-05-21T07:38:32.751Z,8.95
2023-05-21T07:40:59.524Z,10.70
2023-05-21T07:43:28.515Z,10.20
2023-05-21T07:45:55.599Z,9.20
2023-05-21T07:48:22.306Z,10.77
2023-05-21T07:50:50.030Z,11.35
2023-05-21T07:53:16.725Z,10.55
2023-05-21T07:55:47.609Z,16.10
2023-05-21T07:58:18.670Z,12.73
2023-05-21T08:00:48.021Z,18.13
2023-05-21T08:03:19.160Z,11.38
2023-05-21T08:05:49.031Z,10.90
2023-05-21T08:08:19.956Z,9.10
2023-05-21T08:10:47.702Z,10.85
2023-05-21T08:13:15.790Z,9.20
2023-05-21T08:15:43.244Z,11.38
2023-05-21T08:18:10.158Z,10.27
2023-05-21T08:20:37.137Z,10.32
2023-05-21T08:23:04.823Z,11.45
2023-05-21T08:25:31.876Z,15.85
2023-05-21T08:27:58.545Z,9.90
2023-05-21T08:30:26.807Z,10.80
2023-05-21T08:32:54.867Z,11.68
2023-05-21T08:35:21.499Z,11.35
2023-05-21T08:37:48.107Z,11.80
2023-05-21T08:40:15.048Z,13.00
2023-05-21T08:42:49.525Z,12.75
2023-05-21T08:45:23.524Z,10.27
2023-05-21T08:47:57.621Z,11.50
2023-05-21T08:50:27.216Z,10.23
2023-05-21T08:52:55.301Z,10.85
2023-05-21T08:55:23.601Z,11.43
2023-05-21T08:57:50.870Z,10.05
2023-05-21T09:00:17.796Z,10.07
2023-05-21T09:02:46.234Z,12.10
2023-05-21T09:05:15.655Z,12.80
2023-05-21T09:08:01.103Z,10.18
2023-05-21T09:10:40.138Z,11.55
2023-05-21T09:13:08.066Z,14.10
2023-05-21T09:15:34.968Z,11.90
2023-05-21T09:18:01.750Z,17.20
2023-05-21T09:20:28.933Z,12.63
2023-05-21T09:22:55.670Z,13.52
2023-05-21T09:25:25.297Z,10.98
2023-05-21T09:27:54.242Z,11.60
2023-05-21T09:30:34.881Z,12.35
2023-05-21T09:33:05.090Z,10.80
2023-05-21T09:35:33.963Z,13.20
2023-05-21T09:38:01.769Z,11.57
2023-05-21T09:40:29.904Z,12.25
2023-05-21T09:42:56.695Z,13.82
2023-05-21T09:45:27.720Z,13.27
2023-05-21T09:47:56.021Z,11.15
2023-05-21T09:50:25.863Z,14.13
2023-05-21T09:52:55.555Z,13.88
2023-05-21T09:55:23.406Z,12.68
2023-05-21T09:57:51.332Z,14.75
2023-05-21T10:00:21.654Z,15.32
2023-05-21T10:02:49.798Z,14.93
2023-05-21T10:05:17.532Z,13.85
2023-05-21T10:07:51.331Z,13.07
2023-05-21T10:10:21.426Z,13.55
2023-05-21T10:13:00.576Z,13.32
2023-05-21T10:15:31.771Z,10.93
2023-05-21T10:18:01.174Z,13.90
2023-05-21T10:20:27.866Z,12.90
2023-05-21T10:22:55.522Z,13.07
2023-05-21T10:25:23.127Z,15.57
2023-05-21T10:27:49.787Z,15.80
2023-05-21T10:30:18.592Z,14.02
2023-05-21T10:32:48.565Z,15.23
2023-05-21T10:35:18.434Z,13.85
2023-05-21T10:37:45.682Z,15.05
2023-05-21T10:40:13.173Z,11.23
2023-05-21T10:42:58.602Z,13.50
2023-05-21T10:45:47.824Z,14.40
2023-05-21T10:48:42.715Z,15.30
2023-05-21T10:51:20.066Z,13.13
2023-05-21T10:54:13.926Z,12.38
2023-05-21T10:56:54.917Z,17.60
2023-05-21T10:59:37.670Z,16.77
2023-05-21T11:02:05.697Z,14.13
2023-05-21T11:04:32.534Z,14.55
2023-05-21T11:06:59.441Z,14.02
2023-05-21T11:09:26.572Z,13.52
2023-05-21T11:12:03.934Z,14.70
2023-05-21T11:14:40.489Z,11.25
2023-05-21T11:17:14.799Z,14.35
2023-05-21T11:19:52.454Z,12.77
2023-05-21T11:22:26.958Z,12.30
2023-05-21T11:24:55.559Z,12.93
2023-05-21T11:27:41.390Z,12.90
2023-05-21T11:30:20.616Z,11.07
2023-05-21T11:33:12.171Z,10.32
2023-05-21T11:35:44.812Z,13.80
2023-05-21T11:38:11.653Z,12.23
2023-05-21T11:40:49.844Z,13.48
2023-05-21T11:43:18.227Z,13.50
2023-05-21T11:45:47.124Z,12.15
2023-05-21T11:48:14.342Z,13.38
2023-05-21T11:50:42.723Z,17.85
2023-05-21T11:53:12.075Z,13.63
2023-05-21T11:55:43.403Z,11.00
2023-05-21T11:58:13.569Z,11.07
2023-05-21T12:00:40.803Z,12.38
2023-05-21T12:03:08.328Z,18.08
2023-05-21T12:05:45.407Z,15.80
2023-05-21T12:08:12.036Z,10.60
2023-05-21T12:10:39.688Z,13.55
2023-05-21T12:13:06.678Z,11.18
2023-05-21T12:15:33.332Z,14.70
2023-05-21T12:18:01.065Z,12.00
2023-05-21T12:20:28.598Z,13.27
2023-05-21T12:22:57.096Z,12.45
2023-05-21T12:25:23.797Z,11.10
2023-05-21T12:27:58.119Z,14.95
2023-05-21T12:30:26.236Z,12.55
2023-05-21T12:32:54.605Z,11.82
2023-05-21T12:35:23.196Z,10.38
2023-05-21T12:37:54.699Z,10.27
2023-05-21T12:40:22.134Z,13.75
2023-05-21T12:42:49.828Z,13.30
2023-05-21T12:45:18.554Z,11.95
2023-05-21T12:47:49.908Z,13.93
2023-05-21T12:50:21.179Z,12.25
2023-05-21T12:52:47.947Z,11.93
2023-05-21T12:55:15.058Z,11.10
2023-05-21T12:57:43.756Z,12.93
2023-05-21T13:00:11.155Z,13.20
2023-05-21T13:02:42.375Z,10.30
2023-05-21T13:05:11.396Z,12.18
2023-05-21T13:07:39.427Z,14.80
2023-05-21T13:10:06.727Z,12.40
2023-05-21T13:12:34.244Z,9.27
2023-05-21T13:15:03.250Z,11.10
2023-05-21T13:17:30.581Z,12.18
2023-05-21T13:20:11.285Z,12.93
2023-05-21T13:22:46.805Z,11.93
2023-05-21T13:25:20.203Z,13.32
2023-05-21T13:27:48.692Z,14.10
2023-05-21T13:30:15.582Z,8.98
2023-05-21T13:32:43.415Z,10.63
2023-05-21T13:35:12.061Z,12.98
2023-05-21T13:37:40.192Z,13.00
2023-05-21T13:40:08.630Z,12.25
2023-05-21T13:42:35.809Z,14.35
2023-05-21T13:45:04.254Z,12.02
2023-05-21T13:47:32.054Z,12.60
2023-05-21T13:49:58.680Z,12.52
2023-05-21T13:52:25.310Z,10.35
2023-05-21T13:54:52.084Z,11.88
2023-05-21T13:57:18.813Z,11.48
2023-05-21T13:59:45.543Z,9.80
2023-05-21T14:02:12.181Z,11.93
2023-05-21T14:04:39.964Z,11.30
2023-05-21T14:07:07.132Z,9.13
2023-05-21T14:09:35.562Z,12.82
2023-05-21T14:12:03.147Z,13.15
2023-05-21T14:14:31.348Z,11.02
2023-05-21T14:16:58.026Z,10.57
2023-05-21T14:19:24.811Z,11.48
2023-05-21T14:21:54.669Z,8.00
2023-05-21T14:24:21.324Z,9.38
2023-05-21T14:26:50.207Z,9.85
2023-05-21T14:29:16.837Z,11.48
2023-05-21T14:31:43.510Z,10.57
2023-05-21T14:34:10.188Z,12.75
2023-05-21T14:36:38.865Z,10.20
2023-05-21T14:39:05.679Z,10.13
2023-05-21T14:41:32.385Z,11.43
2023-05-21T14:44:00.331Z,10.98
2023-05-21T14:46:28.780Z,7.82
2023-05-21T14:48:59.018Z,11.70
2023-05-21T14:51:25.795Z,9.32
2023-05-21T14:53:52.425Z,9.55
2023-05-21T14:56:21.571Z,9.57
2023-05-21T14:58:48.272Z,11.23
2023-05-21T15:01:14.981Z,10.70
2023-05-21T15:03:41.909Z,9.20
2023-05-21T15:06:08.741Z,11.07
2023-05-21T15:08:36.113Z,9.75
2023-05-21T15:11:04.886Z,9.63
2023-05-21T15:13:31.842Z,10.32
2023-05-21T15:15:58.513Z,10.95
2023-05-21T15:18:25.320Z,10.02
2023-05-21T15:20:52.798Z,8.13
2023-05-21T15:23:19.433Z,9.52
2023-05-21T15:25:46.116Z,9.10
2023-05-21T15:28:13.106Z,10.13
2023-05-21T15:30:40.448Z,9.57
2023-05-21T15:33:07.091Z,9.50
2023-05-21T15:35:35.454Z,9.57
2023-05-21T15:38:04.247Z,9.98
2023-05-21T15:40:32.123Z,8.40
2023-05-21T15:42:58.898Z,11.13
2023-05-21T15:45:25.641Z,13.13
2023-05-21T15:47:52.378Z,9.02
2023-05-21T15:50:20.882Z,9.73
2023-05-21T15:52:50.252Z,8.75
2023-05-21T15:55:18.292Z,8.05
2023-05-21T15:57:44.987Z,9.52
2023-05-21T16:00:14.327Z,8.70
2023-05-21T16:02:41.839Z,10.07
2023-05-21T16:05:08.981Z,8.07
2023-05-21T16:07:37.789Z,10.45
2023-05-21T16:10:07.143Z,11.27
2023-05-21T16:12:33.858Z,8.75
2023-05-21T16:15:00.776Z,7.97
2023-05-21T16:17:28.996Z,11.25
2023-05-21T16:19:55.701Z,10.88
2023-05-21T16:22:23.678Z,7.97
2023-05-21T16:24:52.156Z,13.55
2023-05-21T16:27:18.719Z,9.38
2023-05-21T16:29:45.709Z,8.48
2023-05-21T16:32:13.834Z,10.65
2023-05-21T16:34:41.015Z,10.15
2023-05-21T16:37:10.963Z,10.40
2023-05-21T16:39:37.605Z,10.60
2023-05-21T16:42:04.704Z,9.10
2023-05-21T16:44:32.118Z,10.60
2023-05-21T16:46:59.607Z,9.05
2023-05-21T16:49:28.904Z,9.65
2023-05-21T16:51:55.575Z,9.38
2023-05-21T16:54:22.248Z,7.45
2023-05-21T16:56:48.920Z,9.25
2023-05-21T16:59:15.769Z,9.27
2023-05-21T17:01:42.736Z,8.82
2023-05-21T17:04:11.460Z,8.27
2023-05-21T17:06:38.110Z,9.10
2023-05-21T17:09:06.660Z,7.57
2023-05-21T17:11:35.807Z,7.45
2023-05-21T17:14:03.951Z,10.13
2023-05-21T17:16:32.142Z,9.90
2023-05-21T17:18:58.840Z,9.00
2023-05-21T17:21:26.643Z,8.43
2023-05-21T17:23:54.698Z,7.82
2023-05-21T17:26:22.290Z,8.25
2023-05-21T17:28:48.929Z,10.65
2023-05-21T17:31:18.114Z,9.00
2023-05-21T17:33:44.901Z,10.23
2023-05-21T17:36:12.568Z,8.40
2023-05-21T17:38:39.182Z,11.77
2023-05-21T17:41:05.874Z,7.70
2023-05-21T17:43:34.502Z,9.75
2023-05-21T17:46:01.181Z,9.90
2023-05-21T17:48:27.783Z,9.95
2023-05-21T17:50:54.540Z,8.32
2023-05-21T17:53:21.283Z,11.88
2023-05-21T17:55:47.887Z,8.82
2023-05-21T17:58:14.482Z,9.55
2023-05-21T18:00:41.150Z,9.68
2023-05-21T18:03:07.936Z,7.72
2023-05-21T18:05:34.848Z,9.68
2023-05-21T18:08:02.662Z,9.88
2023-05-21T18:10:30.252Z,10.20
2023-05-21T18:12:56.959Z,8.98
2023-05-21T18:15:23.691Z,8.23
2023-05-21T18:17:51.923Z,8.60
2023-05-21T18:20:20.428Z,9.85
2023-05-21T18:22:47.108Z,10.38
2023-05-21T18:25:15.820Z,11.77
2023-05-21T18:27:42.434Z,9.30
2023-05-21T18:30:11.430Z,9.63
2023-05-21T18:32:40.976Z,9.60
2023-05-21T18:35:10.602Z,11.90
2023-05-21T18:37:38.588Z,13.90
2023-05-21T18:40:06.012Z,9.82
2023-05-21T18:42:32.625Z,12.55
2023-05-21T18:45:07.372Z,11.77
2023-05-21T18:47:34.390Z,10.13
2023-05-21T18:50:01.189Z,12.40
2023-05-21T18:52:27.832Z,11.27
2023-05-21T18:54:54.720Z,9.82
2023-05-21T18:57:21.343Z,10.82
2023-05-21T18:59:47.955Z,18.48
2023-05-21T19:02:14.711Z,11.32
2023-05-21T19:04:41.334Z,11.07
2023-05-21T19:07:08.041Z,14.25
2023-05-21T19:09:35.939Z,12.93
2023-05-21T19:12:02.620Z,12.77
2023-05-21T19:14:30.227Z,14.05
2023-05-21T19:16:56.944Z,14.85
2023-05-21T19:19:23.617Z,11.25
2023-05-21T19:21:52.074Z,12.05
2023-05-21T19:24:18.938Z,12.63
2023-05-21T19:26:47.363Z,12.75
2023-05-21T19:29:13.998Z,12.77
2023-05-21T19:31:41.145Z,11.82
2023-05-21T19:34:12.677Z,14.15
2023-05-21T19:36:52.324Z,10.82
2023-05-21T19:39:20.860Z,12.43
2023-05-21T19:41:49.119Z,12.73
2023-05-21T19:44:15.783Z,11.57
2023-05-21T19:46:42.472Z,14.55
2023-05-21T19:49:12.335Z,14.00
2023-05-21T19:51:38.921Z,13.32
2023-05-21T19:54:05.682Z,12.07
2023-05-21T19:56:32.251Z,11.23
2023-05-21T19:58:58.865Z,12.10
2023-05-21T20:01:25.662Z,12.38
2023-05-21T20:03:53.878Z,14.10
2023-05-21T20:06:20.719Z,11.02
2023-05-21T20:08:47.710Z,12.85
2023-05-21T20:11:14.580Z,11.45
2023-05-21T20:13:41.977Z,11.48
2023-05-21T20:16:10.271Z,12.80
2023-05-21T20:18:37.037Z,11.77
2023-05-21T20:21:06.321Z,13.23
2023-05-21T20:23:33.045Z,13.70
2023-05-21T20:25:59.710Z,12.02
2023-05-21T20:28:26.361Z,12.68
2023-05-21T20:30:57.099Z,12.68
2023-05-21T20:33:25.363Z,13.90
2023-05-21T20:35:51.986Z,13.02
2023-05-21T20:38:18.632Z,13.90
2023-05-21T20:40:45.424Z,14.32
2023-05-21T20:43:12.126Z,12.52
2023-05-21T20:45:39.414Z,13.18
2023-05-21T20:48:06.769Z,14.15
2023-05-21T20:50:34.753Z,12.55
2023-05-21T20:53:01.858Z,13.50
2023-05-21T20:55:28.522Z,11.93
2023-05-21T20:57:56.002Z,12.02
2023-05-21T21:00:22.656Z,13.50
2023-05-21T21:02:49.717Z,12.60
2023-05-21T21:05:16.360Z,13.82
2023-05-21T21:07:43.102Z,20.35
2023-05-21T21:10:09.987Z,14.57
2023-05-21T21:12:36.590Z,14.95
2023-05-21T21:15:03.622Z,12.70
2023-05-21T21:17:32.190Z,11.80
2023-05-21T21:19:58.867Z,12.05
2023-05-21T21:22:26.280Z,15.02
2023-05-21T21:24:52.912Z,17.23
2023-05-21T21:27:19.554Z,10.98
2023-05-21T21:29:46.433Z,12.20
2023-05-21T21:32:13.146Z,14.73
2023-05-21T21:34:39.764Z,14.32
2023-05-21T21:37:06.451Z,15.43
2023-05-21T21:39:33.164Z,15.75
2023-05-21T21:41:59.978Z,12.80
2023-05-21T21:44:26.578Z,12.18
2023-05-21T21:46:53.175Z,13.07
2023-05-21T21:49:19.837Z,11.70
2023-05-21T21:51:46.495Z,13.57
2023-05-21T21:54:13.134Z,13.77
2023-05-21T21:56:39.865Z,13.18
2023-05-21T21:59:06.498Z,12.82
2023-05-21T22:01:33.387Z,11.13
2023-05-21T22:04:00.148Z,12.80
2023-05-21T22:06:27.696Z,13.43
2023-05-21T22:08:54.688Z,12.30
2023-05-21T22:11:21.874Z,11.82
2023-05-21T22:13:48.751Z,13.60
2023-05-21T22:16:15.428Z,13.30
2023-05-21T22:18:42.200Z,10.15
2023-05-21T22:21:10.586Z,15.77
2023-05-21T22:23:38.691Z,12.75
2023-05-21T22:26:05.892Z,11.93
2023-05-21T22:28:32.907Z,12.20
2023-05-21T22:30:59.641Z,12.63
2023-05-21T22:33:26.835Z,10.77
2023-05-21T22:35:54.322Z,13.48
2023-05-21T22:38:21.392Z,11.48
2023-05-21T22:40:48.227Z,13.75
2023-05-21T22:43:14.953Z,12.10
2023-05-21T22:45:41.639Z,13.68
2023-05-21T22:48:09.229Z,12.45
2023-05-21T22:50:36.145Z,12.40
2023-05-21T22:53:03.014Z,13.40
2023-05-21T22:55:29.699Z,12.13
2023-05-21T22:57:56.465Z,14.60
2023-05-21T23:00:23.527Z,10.23
2023-05-21T23:02:53.107Z,13.93
2023-05-21T23:05:20.903Z,11.30
2023-05-21T23:07:47.593Z,12.70
2023-05-21T23:10:14.387Z,10.88
2023-05-21T23:12:41.246Z,12.27
2023-05-21T23:15:09.741Z,13.27
2023-05-21T23:17:37.258Z,15.20
2023-05-21T23:20:05.577Z,12.45
2023-05-21T23:22:32.627Z,13.02
2023-05-21T23:24:59.465Z,14.07
2023-05-21T23:27:26.158Z,11.00
2023-05-21T23:29:52.986Z,12.90
2023-05-21T23:32:19.855Z,13.18
2023-05-21T23:34:47.027Z,15.27
2023-05-21T23:37:13.653Z,11.80
2023-05-21T23:39:40.380Z,10.55
2023-05-21T23:42:07.318Z,12.65
2023-05-21T23:44:33.955Z,11.90
2023-05-21T23:47:00.556Z,12.80
2023-05-21T23:49:27.167Z,13.23
2023-05-21T23:51:53.964Z,10.27
2023-05-21T23:54:20.612Z,14.27
2023-05-21T23:56:47.389Z,13.52
2023-05-21T23:59:15.650Z,12.70
